Terminal Aerodrome Forecast
Issued by NWS Pocatello, ID

Home | Current Version | Previous Version | Text Only | Print | Product List | Glossary On
Versions: 1 2 3 4 5 6 7 8 9 10 11 12 13 14
062
FTUS45 KPIH 200520
TAFBYI
TAF
KBYI 200520Z 2006/2106 27011KT P6SM SCT110
     FM201700 28013G23KT P6SM FEW050
     FM210300 24009KT P6SM FEW050=

USA.gov is the U.S. government's official web portal to all federal, state and local government web resources and services.